createdAt,value
2022-10-15T00:01:20.509Z,9.20
2022-10-15T00:03:48.477Z,8.85
2022-10-15T00:06:17.297Z,7.88
2022-10-15T00:08:46.987Z,9.55
2022-10-15T00:11:17.066Z,8.35
2022-10-15T00:13:45.171Z,9.35
2022-10-15T00:16:13.808Z,7.90
2022-10-15T00:18:41.700Z,9.50
2022-10-15T00:21:11.351Z,7.97
2022-10-15T00:23:39.242Z,8.65
2022-10-15T00:26:09.137Z,9.60
2022-10-15T00:28:36.902Z,9.43
2022-10-15T00:31:05.495Z,8.63
2022-10-15T00:33:32.974Z,10.52
2022-10-15T00:36:01.605Z,9.50
2022-10-15T00:38:29.290Z,8.60
2022-10-15T00:40:56.869Z,11.02
2022-10-15T00:43:39.343Z,9.85
2022-10-15T00:46:07.790Z,10.02
2022-10-15T00:48:35.313Z,9.80
2022-10-15T00:51:05.133Z,8.60
2022-10-15T00:53:33.316Z,8.63
2022-10-15T00:56:01.579Z,8.43
2022-10-15T00:58:31.704Z,9.23
2022-10-15T01:01:03.133Z,8.80
2022-10-15T01:03:30.964Z,9.15
2022-10-15T01:05:58.552Z,8.93
2022-10-15T01:08:27.043Z,8.57
2022-10-15T01:10:58.388Z,9.73
2022-10-15T01:13:30.423Z,8.88
2022-10-15T01:16:01.068Z,10.50
2022-10-15T01:18:33.232Z,9.32
2022-10-15T01:21:05.169Z,9.10
2022-10-15T01:23:46.406Z,9.98
2022-10-15T01:26:32.261Z,10.32
2022-10-15T01:29:07.538Z,9.25
2022-10-15T01:31:40.736Z,11.00
2022-10-15T01:36:49.076Z,11.02
2022-10-15T01:39:20.304Z,9.55
2022-10-15T01:41:50.951Z,11.23
2022-10-15T01:44:19.731Z,9.23
2022-10-15T01:46:50.347Z,9.20
2022-10-15T01:49:21.304Z,8.50
2022-10-15T01:51:49.545Z,8.95
2022-10-15T01:54:19.248Z,9.55
2022-10-15T01:56:49.821Z,9.15
2022-10-15T01:59:18.952Z,9.68
2022-10-15T02:01:47.824Z,10.20
2022-10-15T02:04:22.687Z,9.93
2022-10-15T02:06:54.291Z,8.77
2022-10-15T02:09:26.198Z,8.75
2022-10-15T02:12:01.188Z,9.48
2022-10-15T02:14:30.447Z,9.05
2022-10-15T02:17:04.193Z,9.68
2022-10-15T02:19:34.057Z,9.50
2022-10-15T02:22:04.799Z,9.65
2022-10-15T02:24:35.840Z,9.25
2022-10-15T02:27:04.592Z,10.90
2022-10-15T02:29:34.042Z,8.38
2022-10-15T02:32:04.056Z,9.60
2022-10-15T02:34:32.183Z,9.20
2022-10-15T02:37:00.134Z,9.75
2022-10-15T02:39:28.031Z,9.77
2022-10-15T02:41:55.619Z,8.70
2022-10-15T02:44:23.159Z,9.57
2022-10-15T02:46:50.651Z,9.43
2022-10-15T02:49:19.530Z,8.48
2022-10-15T02:51:47.019Z,9.07
2022-10-15T02:54:14.577Z,8.93
2022-10-15T02:56:42.023Z,8.00
2022-10-15T02:59:09.517Z,7.90
2022-10-15T03:01:37.022Z,8.07
2022-10-15T03:04:04.562Z,8.65
2022-10-15T03:06:33.363Z,8.55
2022-10-15T03:09:01.032Z,9.18
2022-10-15T03:11:28.580Z,8.80
2022-10-15T03:13:56.088Z,9.55
2022-10-15T03:16:23.659Z,8.35
2022-10-15T03:18:51.143Z,9.23
2022-10-15T03:21:18.625Z,9.15
2022-10-15T03:23:47.709Z,10.40
2022-10-15T03:26:15.250Z,10.10
2022-10-15T03:28:42.789Z,11.05
2022-10-15T03:31:10.340Z,9.65
2022-10-15T03:33:37.827Z,10.48
2022-10-15T03:36:05.833Z,11.02
2022-10-15T03:38:33.325Z,9.73
2022-10-15T03:41:02.155Z,8.65
2022-10-15T03:43:29.674Z,9.18
2022-10-15T03:45:57.200Z,10.02
2022-10-15T03:48:24.714Z,9.77
2022-10-15T03:50:52.180Z,9.43
2022-10-15T03:53:19.655Z,9.60
2022-10-15T03:55:47.143Z,10.55
2022-10-15T03:58:15.953Z,10.25
2022-10-15T04:00:43.642Z,8.68
2022-10-15T04:03:11.286Z,8.80
2022-10-15T04:05:38.769Z,8.95
2022-10-15T04:08:06.993Z,9.60
2022-10-15T04:10:34.794Z,8.27
2022-10-15T04:13:02.359Z,9.50
2022-10-15T04:15:31.280Z,7.47
2022-10-15T04:17:58.879Z,9.25
2022-10-15T04:20:26.449Z,7.72
2022-10-15T04:22:54.113Z,8.82
2022-10-15T04:25:21.785Z,7.45
2022-10-15T04:27:49.395Z,9.82
2022-10-15T04:30:17.351Z,7.20
2022-10-15T04:32:46.211Z,6.63
2022-10-15T04:35:14.250Z,5.70
2022-10-15T04:37:41.837Z,7.10
2022-10-15T04:40:10.193Z,6.55
2022-10-15T04:42:37.860Z,6.72
2022-10-15T04:45:05.804Z,6.80
2022-10-15T04:47:33.304Z,7.05
2022-10-15T04:50:02.194Z,6.32
2022-10-15T04:52:29.734Z,6.65
2022-10-15T04:54:58.580Z,6.63
2022-10-15T04:57:27.258Z,5.97
2022-10-15T04:59:57.692Z,6.20
2022-10-15T05:02:25.571Z,6.97
2022-10-15T05:04:53.219Z,6.07
2022-10-15T05:07:22.370Z,6.00
2022-10-15T05:09:50.243Z,6.22
2022-10-15T05:12:17.810Z,6.47
2022-10-15T05:14:45.272Z,6.50
2022-10-15T05:17:12.858Z,6.28
2022-10-15T05:19:40.489Z,5.80
2022-10-15T05:22:08.000Z,5.88
2022-10-15T05:24:36.977Z,4.50
2022-10-15T05:27:04.493Z,5.80
2022-10-15T05:29:32.108Z,5.68
2022-10-15T05:31:59.646Z,5.03
2022-10-15T05:34:30.486Z,5.65
2022-10-15T05:36:58.416Z,5.75
2022-10-15T05:39:30.987Z,5.07
2022-10-15T05:41:59.942Z,6.50
2022-10-15T05:44:27.532Z,5.28
2022-10-15T05:46:55.131Z,5.05
2022-10-15T05:49:22.604Z,5.82
2022-10-15T05:51:50.156Z,5.55
2022-10-15T05:54:17.695Z,5.30
2022-10-15T05:56:45.301Z,4.82
2022-10-15T05:59:14.237Z,4.20
2022-10-15T06:01:41.812Z,4.32
2022-10-15T06:04:09.361Z,4.45
2022-10-15T06:06:36.848Z,6.22
2022-10-15T06:09:04.586Z,3.95
2022-10-15T06:11:32.267Z,4.35
2022-10-15T06:13:59.829Z,4.50
2022-10-15T06:16:28.767Z,3.80
2022-10-15T06:18:56.263Z,4.13
2022-10-15T06:21:23.960Z,4.50
2022-10-15T06:23:51.520Z,4.55
2022-10-15T06:26:19.124Z,6.13
2022-10-15T06:28:46.842Z,4.78
2022-10-15T06:31:14.784Z,3.50
2022-10-15T06:33:47.145Z,3.97
2022-10-15T06:36:14.866Z,5.75
2022-10-15T06:38:47.148Z,3.80
2022-10-15T06:41:14.795Z,3.72
2022-10-15T06:43:42.571Z,3.75
2022-10-15T06:46:11.024Z,3.75
2022-10-15T06:48:42.549Z,3.72
2022-10-15T06:51:12.035Z,4.10
2022-10-15T06:53:42.256Z,3.40
2022-10-15T06:56:11.125Z,3.38
2022-10-15T06:58:38.613Z,3.50
2022-10-15T07:01:07.755Z,3.22
2022-10-15T07:03:36.458Z,3.40
2022-10-15T07:06:04.696Z,3.13
2022-10-15T07:08:37.524Z,3.25
2022-10-15T07:11:06.189Z,3.20
2022-10-15T07:13:34.450Z,2.58
2022-10-15T07:16:09.149Z,3.20
2022-10-15T07:19:08.309Z,3.92
2022-10-15T07:21:43.860Z,2.55
2022-10-15T07:24:12.777Z,2.67
2022-10-15T07:26:40.312Z,2.40
2022-10-15T07:29:07.990Z,3.28
2022-10-15T07:31:35.742Z,3.10
2022-10-15T07:34:03.750Z,2.50
2022-10-15T07:36:31.295Z,2.08
2022-10-15T07:38:58.862Z,2.33
2022-10-15T07:41:27.978Z,2.25
2022-10-15T07:43:55.522Z,2.60
2022-10-15T07:46:23.328Z,2.40
2022-10-15T07:48:50.935Z,2.60
2022-10-15T07:53:47.387Z,2.50
2022-10-15T07:56:15.754Z,2.50
2022-10-15T07:58:51.711Z,2.70
2022-10-15T08:01:20.001Z,2.40
2022-10-15T08:03:47.811Z,2.13
2022-10-15T08:06:15.418Z,2.40
2022-10-15T08:08:42.963Z,2.22
2022-10-15T08:11:11.490Z,2.67
2022-10-15T08:13:41.396Z,2.17
2022-10-15T08:16:10.989Z,2.28
2022-10-15T08:18:40.185Z,2.00
2022-10-15T08:21:08.108Z,2.05
2022-10-15T08:23:35.835Z,2.05
2022-10-15T08:26:03.710Z,1.90
2022-10-15T08:28:31.900Z,1.92
2022-10-15T08:31:04.234Z,2.17
2022-10-15T08:33:34.957Z,1.70
2022-10-15T08:36:02.949Z,2.15
2022-10-15T08:38:31.296Z,2.20
2022-10-15T08:41:00.167Z,2.58
2022-10-15T08:43:30.346Z,2.10
2022-10-15T08:45:59.904Z,1.88
2022-10-15T08:48:29.914Z,2.35
2022-10-15T08:51:05.158Z,1.95
2022-10-15T08:53:34.414Z,1.92
2022-10-15T08:56:07.034Z,1.77
2022-10-15T08:58:51.730Z,1.77
2022-10-15T09:01:32.440Z,1.63
2022-10-15T09:04:08.819Z,1.40
2022-10-15T09:06:39.180Z,2.85
2022-10-15T09:09:08.866Z,1.33
2022-10-15T09:11:43.476Z,1.58
2022-10-15T09:14:12.909Z,1.73
2022-10-15T09:16:41.324Z,2.42
2022-10-15T09:19:14.884Z,1.90
2022-10-15T09:21:44.399Z,1.70
2022-10-15T09:24:12.798Z,1.40
2022-10-15T09:26:48.491Z,1.88
2022-10-15T09:29:19.772Z,1.45
2022-10-15T09:31:51.694Z,1.75
2022-10-15T09:34:21.907Z,1.50
2022-10-15T09:36:53.545Z,1.52
2022-10-15T09:39:33.381Z,1.70
2022-10-15T09:42:06.369Z,1.95
2022-10-15T09:44:37.152Z,1.60
2022-10-15T09:47:15.144Z,2.10
2022-10-15T09:49:43.144Z,2.03
2022-10-15T09:52:14.554Z,2.47
2022-10-15T09:54:46.354Z,2.15
2022-10-15T09:57:15.400Z,2.22
2022-10-15T09:59:53.181Z,2.67
2022-10-15T10:02:21.694Z,3.00
2022-10-15T10:04:49.361Z,2.78
2022-10-15T10:07:31.667Z,3.42
2022-10-15T10:10:04.339Z,3.42
2022-10-15T10:12:33.269Z,3.30
2022-10-15T10:15:01.946Z,3.70
2022-10-15T10:17:30.053Z,4.05
2022-10-15T10:20:06.492Z,3.40
2022-10-15T10:22:42.549Z,2.75
2022-10-15T10:25:23.895Z,3.70
2022-10-15T10:27:51.434Z,3.65
2022-10-15T10:30:19.201Z,3.03
2022-10-15T10:32:48.424Z,3.17
2022-10-15T10:35:21.530Z,2.28
2022-10-15T10:37:50.480Z,2.83
2022-10-15T10:40:24.097Z,2.90
2022-10-15T10:43:09.913Z,1.80
2022-10-15T10:45:37.585Z,1.55
2022-10-15T10:48:21.888Z,1.70
2022-10-15T10:51:09.005Z,1.83
2022-10-15T10:53:43.616Z,1.88
2022-10-15T10:56:13.828Z,2.10
2022-10-15T10:58:41.311Z,3.05
2022-10-15T11:01:12.521Z,1.55
2022-10-15T11:03:41.942Z,2.05
2022-10-15T11:06:15.147Z,1.77
2022-10-15T11:08:47.974Z,1.88
2022-10-15T11:11:22.506Z,1.40
2022-10-15T11:13:58.863Z,1.45
2022-10-15T11:16:51.511Z,1.02
2022-10-15T11:22:38.528Z,1.20
2022-10-15T11:25:13.423Z,1.50
2022-10-15T11:27:47.841Z,1.20
2022-10-15T11:30:22.342Z,1.42
2022-10-15T11:33:06.809Z,1.58
2022-10-15T11:35:52.912Z,1.83
2022-10-15T11:38:24.554Z,1.73
2022-10-15T11:41:11.060Z,1.45
2022-10-15T11:43:44.704Z,1.33
2022-10-15T11:46:16.433Z,1.50
2022-10-15T11:48:52.804Z,1.25
2022-10-15T11:51:25.881Z,1.60
2022-10-15T11:53:58.771Z,1.30
2022-10-15T11:56:30.305Z,1.13
2022-10-15T11:59:15.613Z,1.48
2022-10-15T12:01:46.684Z,1.60
2022-10-15T12:04:15.881Z,1.42
2022-10-15T12:06:45.707Z,1.60
2022-10-15T12:09:16.611Z,1.50
2022-10-15T12:11:49.589Z,1.05
2022-10-15T12:14:23.308Z,1.77
2022-10-15T12:16:55.106Z,0.95
2022-10-15T12:19:23.573Z,1.60
2022-10-15T12:22:06.732Z,1.70
2022-10-15T12:24:53.694Z,1.63
2022-10-15T12:27:36.725Z,2.05
2022-10-15T12:30:24.610Z,2.55
2022-10-15T12:32:52.652Z,1.88
2022-10-15T12:37:50.674Z,2.78
2022-10-15T12:40:33.319Z,2.00
2022-10-15T12:43:03.518Z,2.17
2022-10-15T12:45:40.239Z,1.83
2022-10-15T12:48:19.192Z,2.63
2022-10-15T12:50:46.790Z,2.03
2022-10-15T12:53:32.683Z,1.80
2022-10-15T12:56:13.761Z,2.10
2022-10-15T12:58:43.599Z,1.95
2022-10-15T13:01:26.271Z,1.80
2022-10-15T13:03:54.909Z,1.90
2022-10-15T13:06:33.195Z,2.10
2022-10-15T13:09:21.531Z,1.98
2022-10-15T13:14:28.971Z,1.90
2022-10-15T13:16:56.813Z,1.50
2022-10-15T13:19:26.341Z,1.80
2022-10-15T13:21:56.117Z,1.98
2022-10-15T13:24:25.335Z,2.15
2022-10-15T13:26:53.577Z,2.13
2022-10-15T13:29:21.866Z,2.00
2022-10-15T13:31:51.552Z,1.77
2022-10-15T13:34:27.347Z,2.70
2022-10-15T13:36:55.440Z,1.73
2022-10-15T13:39:29.534Z,2.03
2022-10-15T13:42:08.416Z,1.77
2022-10-15T13:44:53.678Z,2.10
2022-10-15T13:47:27.464Z,2.00
2022-10-15T13:50:17.795Z,1.90
2022-10-15T13:53:12.227Z,2.03
2022-10-15T13:55:44.040Z,1.65
2022-10-15T13:58:20.314Z,1.88
2022-10-15T14:00:52.394Z,1.90
2022-10-15T14:03:23.050Z,2.15
2022-10-15T14:05:51.319Z,1.80
2022-10-15T14:08:20.428Z,1.88
2022-10-15T14:10:56.514Z,2.05
2022-10-15T14:13:24.173Z,1.90
2022-10-15T14:15:54.679Z,2.00
2022-10-15T14:18:30.835Z,2.08
2022-10-15T14:20:58.561Z,2.25
2022-10-15T14:23:27.347Z,3.38
2022-10-15T14:25:59.116Z,1.80
2022-10-15T14:28:27.094Z,2.08
2022-10-15T14:30:55.234Z,2.80
2022-10-15T14:33:42.136Z,2.13
2022-10-15T14:36:12.082Z,3.10
2022-10-15T14:38:39.898Z,2.33
2022-10-15T14:41:20.336Z,2.28
2022-10-15T14:43:47.840Z,2.20
2022-10-15T14:46:17.133Z,2.35
2022-10-15T14:48:46.039Z,2.13
2022-10-15T14:51:24.318Z,3.03
2022-10-15T14:53:53.086Z,2.30
2022-10-15T14:56:22.750Z,2.30
2022-10-15T14:58:52.399Z,2.70
2022-10-15T15:01:20.836Z,3.65
2022-10-15T15:03:51.006Z,3.22
2022-10-15T15:06:18.695Z,2.78
2022-10-15T15:08:46.621Z,3.03
2022-10-15T15:11:15.526Z,2.97
2022-10-15T15:13:44.678Z,3.90
2022-10-15T15:16:16.362Z,2.70
2022-10-15T15:18:48.748Z,2.95
2022-10-15T15:21:18.903Z,4.47
2022-10-15T15:23:49.060Z,3.35
2022-10-15T15:26:16.608Z,2.95
2022-10-15T15:28:44.254Z,3.33
2022-10-15T15:31:14.445Z,2.70
2022-10-15T15:33:42.327Z,3.42
2022-10-15T15:36:12.330Z,3.58
2022-10-15T15:38:41.204Z,3.40
2022-10-15T15:41:13.439Z,3.65
2022-10-15T15:43:41.349Z,3.50
2022-10-15T15:46:09.459Z,3.88
2022-10-15T15:48:37.574Z,3.15
2022-10-15T15:51:05.921Z,3.80
2022-10-15T15:53:34.946Z,4.10
2022-10-15T15:56:04.029Z,3.30
2022-10-15T15:58:31.669Z,4.18
2022-10-15T16:00:59.355Z,4.25
2022-10-15T16:03:26.949Z,3.47
2022-10-15T16:05:54.502Z,3.45
2022-10-15T16:08:22.132Z,3.55
2022-10-15T16:10:49.620Z,3.83
2022-10-15T16:13:18.659Z,3.40
2022-10-15T16:15:46.214Z,3.88
2022-10-15T16:18:13.843Z,3.80
2022-10-15T16:20:55.882Z,4.95
2022-10-15T16:23:26.757Z,4.18
2022-10-15T16:25:57.418Z,4.18
2022-10-15T16:28:26.440Z,3.95
2022-10-15T16:30:53.995Z,4.38
2022-10-15T16:33:21.586Z,4.30
2022-10-15T16:35:54.851Z,5.18
2022-10-15T16:38:25.164Z,4.50
2022-10-15T16:40:52.706Z,6.28
2022-10-15T16:43:20.208Z,4.78
2022-10-15T16:46:00.267Z,5.45
2022-10-15T16:48:27.855Z,4.32
2022-10-15T16:51:08.580Z,6.95
2022-10-15T16:53:37.520Z,5.85
2022-10-15T16:56:16.011Z,5.45
2022-10-15T16:59:01.486Z,6.43
2022-10-15T17:01:30.490Z,6.80
2022-10-15T17:03:59.539Z,6.72
2022-10-15T17:06:28.112Z,7.38
2022-10-15T17:09:10.749Z,8.20
2022-10-15T17:11:41.111Z,7.10
2022-10-15T17:14:09.710Z,7.20
2022-10-15T17:16:39.750Z,7.43
2022-10-15T17:19:07.735Z,7.70
2022-10-15T17:21:36.763Z,7.93
2022-10-15T17:24:06.143Z,7.90
2022-10-15T17:26:36.287Z,8.18
2022-10-15T17:29:04.743Z,7.47
2022-10-15T17:31:35.515Z,8.18
2022-10-15T17:34:06.302Z,7.90
2022-10-15T17:36:42.316Z,8.27
2022-10-15T17:39:10.923Z,8.48
2022-10-15T17:41:38.518Z,8.32
2022-10-15T17:44:06.299Z,8.25
2022-10-15T17:46:34.203Z,7.45
2022-10-15T17:49:01.875Z,9.63
2022-10-15T17:51:31.540Z,8.95
2022-10-15T17:54:00.694Z,7.70
2022-10-15T17:56:29.511Z,7.80
2022-10-15T17:58:57.368Z,7.90
2022-10-15T18:01:39.203Z,7.90
2022-10-15T18:04:14.694Z,7.68
2022-10-15T18:06:45.538Z,7.95
2022-10-15T18:09:13.223Z,8.52
2022-10-15T18:11:40.843Z,8.85
2022-10-15T18:14:08.807Z,8.00
2022-10-15T18:16:36.418Z,8.73
2022-10-15T18:19:04.132Z,8.30
2022-10-15T18:21:32.021Z,9.07
2022-10-15T18:24:01.786Z,9.38
2022-10-15T18:26:29.366Z,9.57
2022-10-15T18:28:57.146Z,8.50
2022-10-15T18:31:26.982Z,8.20
2022-10-15T18:33:56.102Z,8.20
2022-10-15T18:36:25.484Z,8.68
2022-10-15T18:38:53.433Z,8.90
2022-10-15T18:41:27.157Z,8.98
2022-10-15T18:43:55.441Z,8.20
2022-10-15T18:46:23.564Z,8.52
2022-10-15T18:48:51.435Z,8.55
2022-10-15T18:51:19.815Z,9.25
2022-10-15T18:53:47.650Z,8.93
2022-10-15T18:56:15.305Z,8.18
2022-10-15T18:58:44.312Z,7.93
2022-10-15T19:01:12.437Z,7.68
2022-10-15T19:03:40.114Z,7.70
2022-10-15T19:06:07.703Z,7.22
2022-10-15T19:08:35.182Z,8.23
2022-10-15T19:11:09.023Z,7.38
2022-10-15T19:13:39.229Z,8.30
2022-10-15T19:16:08.881Z,7.20
2022-10-15T19:18:37.094Z,7.68
2022-10-15T19:21:14.089Z,9.65
2022-10-15T19:23:41.853Z,9.60
2022-10-15T19:26:10.150Z,7.72
2022-10-15T19:28:37.804Z,8.95
2022-10-15T19:31:06.371Z,7.82
2022-10-15T19:33:36.060Z,7.75
2022-10-15T19:36:03.713Z,7.80
2022-10-15T19:38:33.994Z,7.20
2022-10-15T19:41:04.756Z,6.82
2022-10-15T19:43:32.402Z,6.47
2022-10-15T19:46:06.698Z,6.32
2022-10-15T19:51:04.236Z,5.78
2022-10-15T19:53:32.115Z,6.82
2022-10-15T19:56:00.261Z,6.70
2022-10-15T19:58:28.149Z,5.82
2022-10-15T20:00:55.839Z,4.85
2022-10-15T20:03:24.241Z,5.43
2022-10-15T20:05:51.900Z,5.20
2022-10-15T20:08:21.409Z,5.13
2022-10-15T20:10:51.318Z,5.30
2022-10-15T20:13:19.808Z,4.60
2022-10-15T20:15:48.646Z,4.75
2022-10-15T20:18:16.613Z,4.47
2022-10-15T20:20:45.441Z,4.55
2022-10-15T20:23:14.619Z,3.50
2022-10-15T20:25:44.179Z,4.47
2022-10-15T20:28:12.146Z,4.85
2022-10-15T20:30:45.186Z,3.85
2022-10-15T20:33:13.906Z,4.05
2022-10-15T20:35:42.083Z,3.88
2022-10-15T20:38:10.849Z,5.00
2022-10-15T20:40:44.060Z,3.67
2022-10-15T20:43:12.922Z,4.68
2022-10-15T20:45:43.564Z,4.28
2022-10-15T20:48:17.296Z,4.10
2022-10-15T20:50:47.696Z,4.18
2022-10-15T20:53:17.262Z,4.32
2022-10-15T20:55:44.975Z,4.35
2022-10-15T21:00:43.165Z,4.75
2022-10-15T21:03:10.624Z,5.32
2022-10-15T21:05:41.605Z,4.00
2022-10-15T21:08:15.249Z,4.43
2022-10-15T21:10:42.880Z,4.47
2022-10-15T21:13:10.422Z,4.72
2022-10-15T21:15:39.437Z,4.40
2022-10-15T21:18:07.588Z,5.10
2022-10-15T21:20:35.606Z,6.07
2022-10-15T21:23:08.304Z,4.10
2022-10-15T21:28:13.225Z,4.10
2022-10-15T21:30:42.870Z,4.60
2022-10-15T21:33:10.409Z,4.50
2022-10-15T21:35:41.183Z,4.53
2022-10-15T21:38:11.710Z,4.57
2022-10-15T21:40:39.702Z,3.92
2022-10-15T21:43:07.325Z,4.05
2022-10-15T21:45:34.927Z,4.60
2022-10-15T21:48:03.914Z,5.22
2022-10-15T21:50:31.736Z,4.05
2022-10-15T21:52:59.826Z,3.88
2022-10-15T21:55:29.826Z,4.10
2022-10-15T21:57:58.193Z,4.22
2022-10-15T22:00:26.293Z,3.75
2022-10-15T22:02:54.034Z,4.10
2022-10-15T22:05:22.897Z,4.03
2022-10-15T22:07:50.376Z,3.80
2022-10-15T22:10:17.970Z,3.78
2022-10-15T22:12:46.872Z,3.83
2022-10-15T22:15:14.459Z,4.22
2022-10-15T22:17:41.952Z,4.25
2022-10-15T22:20:09.803Z,5.18
2022-10-15T22:22:38.643Z,3.88
2022-10-15T22:25:06.581Z,3.42
2022-10-15T22:27:34.090Z,3.35
2022-10-15T22:30:01.724Z,4.47
2022-10-15T22:32:29.324Z,4.38
2022-10-15T22:34:57.165Z,4.03
2022-10-15T22:37:24.795Z,4.35
2022-10-15T22:39:53.666Z,4.40
2022-10-15T22:42:21.200Z,4.18
2022-10-15T22:44:48.892Z,4.07
2022-10-15T22:47:16.567Z,3.42
2022-10-15T22:49:44.189Z,4.38
2022-10-15T22:52:11.850Z,3.90
2022-10-15T22:54:39.385Z,4.10
2022-10-15T22:57:08.258Z,4.35
2022-10-15T22:59:35.788Z,3.78
2022-10-15T23:02:04.421Z,3.65
2022-10-15T23:04:32.002Z,3.97
2022-10-15T23:06:59.483Z,4.15
2022-10-15T23:09:27.024Z,4.45
2022-10-15T23:11:54.536Z,3.95
2022-10-15T23:14:23.346Z,4.85
2022-10-15T23:16:50.908Z,4.45
2022-10-15T23:19:19.298Z,4.05
2022-10-15T23:21:48.355Z,4.50
2022-10-15T23:24:16.101Z,4.35
2022-10-15T23:26:43.821Z,4.70
2022-10-15T23:29:14.297Z,4.00
2022-10-15T23:31:43.430Z,4.45
2022-10-15T23:34:12.878Z,4.90
2022-10-15T23:36:40.498Z,4.78
2022-10-15T23:39:08.523Z,4.50
2022-10-15T23:41:36.136Z,4.50
2022-10-15T23:44:03.663Z,4.35
2022-10-15T23:46:31.344Z,4.68
2022-10-15T23:49:00.415Z,4.85
2022-10-15T23:51:28.641Z,5.13
2022-10-15T23:53:57.176Z,4.70
2022-10-15T23:56:25.048Z,5.07
2022-10-15T23:58:53.173Z,4.53
